Time;durP1;ratioP1;P1;durP2;ratioP2;P2;SDS_P1;SDS_P2;PMS_P1;PMS_P2;Temp;Humidity;BMP_temperature;BMP_pressure;BME280_temperature;BME280_humidity;BME280_pressure;Samples;Min_cycle;Max_cycle;Signal;HPM_P1;HPM_P2
2024/02/21 00:02:50;;;;;;;23.02;12.23;;;10.30;99.90;;;;;;10329194;28;20209;-64
2024/02/21 00:07:55;;;;;;;18.87;11.70;;;10.30;99.90;;;;;;10330566;28;20228;-65
2024/02/21 00:12:59;;;;;;;26.77;12.18;;;10.30;99.90;;;;;;10330630;28;20266;-64
2024/02/21 00:18:02;;;;;;;23.42;11.98;;;10.30;99.90;;;;;;10327293;28;20225;-64
2024/02/21 00:23:08;;;;;;;21.70;11.57;;;10.30;99.90;;;;;;10330422;28;20237;-64
2024/02/21 00:28:11;;;;;;;22.15;13.48;;;10.30;99.90;;;;;;10329450;28;20229;-64
2024/02/21 00:33:15;;;;;;;25.75;12.18;;;10.30;99.90;;;;;;10331321;28;20214;-60
2024/02/21 00:38:20;;;;;;;24.55;11.98;;;10.30;99.90;;;;;;10329270;28;20221;-61
2024/02/21 00:43:24;;;;;;;22.33;12.10;;;10.20;99.90;;;;;;10331895;28;20204;-65
2024/02/21 00:48:28;;;;;;;19.92;11.93;;;10.20;99.90;;;;;;10328469;28;20229;-61
2024/02/21 00:53:33;;;;;;;24.33;12.38;;;10.30;99.90;;;;;;10326071;28;20657;-65
2024/02/21 00:58:37;;;;;;;21.27;12.35;;;10.30;99.90;;;;;;10328365;28;20678;-63
2024/02/21 01:03:40;;;;;;;21.75;12.70;;;10.30;99.90;;;;;;10327915;28;20277;-63
2024/02/21 01:08:46;;;;;;;25.30;12.87;;;10.30;99.90;;;;;;10327185;28;20232;-65
2024/02/21 01:13:50;;;;;;;20.73;12.90;;;10.30;99.90;;;;;;10329722;28;20212;-66
2024/02/21 01:18:53;;;;;;;21.57;11.23;;;10.30;99.90;;;;;;10328472;28;20254;-64
2024/02/21 01:23:58;;;;;;;20.67;12.27;;;10.30;99.90;;;;;;10327278;28;20208;-63
2024/02/21 01:29:02;;;;;;;21.00;11.68;;;10.30;99.90;;;;;;10330137;28;21526;-64
2024/02/21 01:34:06;;;;;;;27.95;12.43;;;10.30;99.90;;;;;;10332137;28;20216;-62
2024/02/21 01:39:11;;;;;;;27.05;14.18;;;10.30;99.90;;;;;;10330900;28;20237;-65
2024/02/21 01:44:15;;;;;;;22.90;12.37;;;10.20;99.90;;;;;;10331081;28;20228;-66
2024/02/21 01:49:19;;;;;;;23.77;12.30;;;10.20;99.90;;;;;;10331347;28;20225;-65
2024/02/21 01:54:28;;;;;;;24.25;11.63;;;10.20;99.90;;;;;;10333375;28;20212;-65
2024/02/21 01:59:32;;;;;;;35.95;16.92;;;10.20;99.90;;;;;;10331349;28;20270;-65
2024/02/21 02:04:36;;;;;;;49.53;23.15;;;10.20;99.90;;;;;;10336686;28;20658;-65
2024/02/21 02:09:41;;;;;;;30.95;15.65;;;10.30;99.90;;;;;;10338761;28;20228;-63
2024/02/21 02:14:45;;;;;;;20.15;11.10;;;10.20;99.90;;;;;;10339212;28;20209;-63
2024/02/21 02:19:48;;;;;;;19.83;11.30;;;10.20;99.90;;;;;;10338798;28;20598;-64
2024/02/21 02:24:54;;;;;;;22.55;12.38;;;10.20;99.90;;;;;;10340466;28;20279;-65
2024/02/21 02:29:58;;;;;;;20.37;11.47;;;10.20;99.90;;;;;;10339933;28;20231;-64
2024/02/21 02:35:01;;;;;;;20.73;11.10;;;10.20;99.90;;;;;;10341154;28;20638;-65
2024/02/21 02:40:08;;;;;;;19.73;11.65;;;10.20;99.90;;;;;;10340304;28;20274;-64
2024/02/21 02:45:12;;;;;;;23.60;11.95;;;10.20;99.90;;;;;;10343044;28;20203;-63
2024/02/21 02:50:16;;;;;;;21.40;11.48;;;10.20;99.90;;;;;;10340509;28;20675;-65
2024/02/21 02:55:21;;;;;;;21.20;11.47;;;10.20;99.90;;;;;;10339298;28;20253;-65
2024/02/21 03:00:25;;;;;;;23.63;11.20;;;10.20;99.90;;;;;;10338782;28;21406;-64
2024/02/21 03:05:28;;;;;;;26.27;11.13;;;10.20;99.90;;;;;;10339511;28;20205;-65
2024/02/21 03:10:34;;;;;;;22.17;10.80;;;10.20;99.90;;;;;;10338684;28;20232;-65
2024/02/21 03:15:37;;;;;;;18.27;10.50;;;10.20;99.90;;;;;;10337021;28;20230;-65
2024/02/21 03:20:41;;;;;;;20.88;10.73;;;10.20;99.90;;;;;;10337332;28;21256;-62
2024/02/21 03:25:46;;;;;;;20.77;10.90;;;10.20;99.90;;;;;;10327407;28;20275;-65
2024/02/21 03:30:50;;;;;;;23.85;10.85;;;10.20;99.90;;;;;;10333838;28;20325;-64
2024/02/21 03:35:53;;;;;;;19.17;10.70;;;10.10;99.90;;;;;;10332516;28;21413;-64
2024/02/21 03:40:58;;;;;;;22.00;11.07;;;10.10;99.90;;;;;;10333437;28;20285;-60
2024/02/21 03:46:03;;;;;;;19.17;10.40;;;10.10;99.90;;;;;;10332735;28;20228;-65
2024/02/21 03:51:06;;;;;;;20.58;9.90;;;10.10;99.90;;;;;;10332164;28;20262;-61
2024/02/21 03:56:11;;;;;;;19.53;10.13;;;10.10;99.90;;;;;;10330880;28;20227;-65
2024/02/21 04:01:17;;;;;;;18.57;10.03;;;10.10;99.90;;;;;;10329594;28;21268;-64
2024/02/21 04:06:21;;;;;;;22.23;11.02;;;10.10;99.90;;;;;;10331542;28;20761;-66
2024/02/21 04:11:26;;;;;;;20.77;10.43;;;10.10;99.90;;;;;;10331531;28;20312;-66
2024/02/21 04:16:29;;;;;;;16.58;9.68;;;10.10;99.90;;;;;;10332159;28;20240;-65
2024/02/21 04:21:33;;;;;;;17.80;10.20;;;10.10;99.90;;;;;;10331832;28;21283;-59
2024/02/21 04:26:38;;;;;;;18.10;10.13;;;10.10;99.90;;;;;;10328226;28;20274;-58
2024/02/21 04:31:41;;;;;;;20.35;10.45;;;10.10;99.90;;;;;;10331246;28;20249;-60
2024/02/21 04:36:46;;;;;;;17.05;9.25;;;10.10;99.90;;;;;;10328727;28;21372;-59
2024/02/21 04:41:51;;;;;;;17.17;9.60;;;10.10;99.90;;;;;;10330482;28;20264;-60
2024/02/21 04:46:54;;;;;;;17.17;9.47;;;10.10;99.90;;;;;;10324870;28;20224;-59
2024/02/21 04:51:58;;;;;;;16.92;8.98;;;10.10;99.90;;;;;;10327059;28;20232;-59
2024/02/21 04:57:03;;;;;;;16.02;8.65;;;10.20;99.90;;;;;;10317414;28;20290;-59
2024/02/21 05:02:06;;;;;;;16.37;9.13;;;10.20;99.90;;;;;;10322888;28;20208;-58
2024/02/21 05:07:11;;;;;;;17.77;9.00;;;10.20;99.90;;;;;;10323792;28;21309;-59
2024/02/21 05:12:17;;;;;;;17.40;9.20;;;10.20;99.90;;;;;;10325381;28;20305;-59
2024/02/21 05:17:20;;;;;;;13.68;8.27;;;10.20;99.90;;;;;;10325679;28;20236;-59
2024/02/21 05:22:24;;;;;;;16.10;7.67;;;10.20;99.90;;;;;;10331277;28;20536;-58
2024/02/21 05:27:29;;;;;;;11.53;7.47;;;10.20;99.90;;;;;;10329908;28;20233;-60
2024/02/21 05:32:33;;;;;;;13.20;7.53;;;10.30;99.90;;;;;;10329361;28;20228;-59
2024/02/21 05:37:37;;;;;;;15.45;8.00;;;10.20;99.90;;;;;;10330194;28;20284;-58
2024/02/21 05:42:42;;;;;;;17.00;8.43;;;10.20;99.80;;;;;;10337451;28;20250;-58
2024/02/21 05:47:45;;;;;;;13.40;7.88;;;10.20;99.90;;;;;;10337442;28;20235;-59
2024/02/21 05:52:49;;;;;;;13.13;7.23;;;10.20;99.90;;;;;;10337162;28;20318;-59
2024/02/21 05:57:56;;;;;;;16.67;8.65;;;10.20;99.90;;;;;;10333124;28;20227;-58
2024/02/21 06:03:00;;;;;;;25.33;11.93;;;10.20;99.90;;;;;;10335183;28;20205;-58
2024/02/21 06:08:04;;;;;;;18.70;9.85;;;10.20;99.90;;;;;;10330829;28;20224;-65
2024/02/21 06:13:09;;;;;;;12.00;7.35;;;10.20;99.90;;;;;;10338470;28;20233;-65
2024/02/21 06:18:13;;;;;;;13.63;9.95;;;10.20;99.80;;;;;;10336529;28;20239;-65
2024/02/21 06:23:17;;;;;;;19.93;10.97;;;10.20;99.90;;;;;;10335400;28;20200;-65
2024/02/21 06:28:22;;;;;;;13.87;7.27;;;10.20;99.80;;;;;;10339313;28;20228;-62
2024/02/21 06:33:26;;;;;;;19.97;13.87;;;10.30;99.70;;;;;;10337688;28;20338;-63
2024/02/21 06:38:30;;;;;;;12.90;6.57;;;10.30;99.90;;;;;;10336017;28;20385;-64
2024/02/21 06:43:35;;;;;;;13.90;8.20;;;10.20;99.80;;;;;;10335741;28;20208;-62
2024/02/21 06:48:39;;;;;;;15.03;9.50;;;10.20;99.80;;;;;;10340804;28;20227;-63
2024/02/21 06:53:46;;;;;;;13.57;8.57;;;10.20;99.80;;;;;;10337575;28;20233;-64
2024/02/21 06:58:51;;;;;;;12.52;6.95;;;10.20;99.90;;;;;;10335075;28;20228;-63
2024/02/21 07:03:55;;;;;;;13.73;8.37;;;10.30;99.80;;;;;;10334099;28;20936;-64
2024/02/21 07:08:58;;;;;;;11.05;6.65;;;10.30;99.90;;;;;;10337116;28;20224;-65
2024/02/21 07:14:03;;;;;;;9.40;5.83;;;10.30;99.60;;;;;;10331604;28;20311;-64
2024/02/21 07:19:07;;;;;;;9.37;5.63;;;10.30;99.40;;;;;;10336568;28;20236;-65
2024/02/21 07:24:11;;;;;;;10.40;6.37;;;10.30;99.80;;;;;;10339251;28;20258;-64
2024/02/21 07:29:16;;;;;;;15.95;6.20;;;10.30;98.50;;;;;;10339205;28;20224;-65
2024/02/21 07:34:20;;;;;;;10.18;5.85;;;10.30;98.70;;;;;;10334090;28;20251;-65
2024/02/21 07:39:23;;;;;;;14.10;6.20;;;10.30;98.90;;;;;;10334582;28;20223;-66
2024/02/21 07:44:28;;;;;;;11.40;6.28;;;10.40;99.00;;;;;;10334356;28;20196;-66
2024/02/21 07:49:32;;;;;;;10.80;5.50;;;10.40;98.60;;;;;;10336274;28;20228;-64
2024/02/21 07:54:36;;;;;;;10.23;5.30;;;10.40;98.80;;;;;;10339981;28;20294;-62
2024/02/21 07:59:41;;;;;;;10.10;5.65;;;10.40;98.70;;;;;;10337302;28;20236;-66
2024/02/21 08:04:45;;;;;;;11.73;6.10;;;10.50;98.70;;;;;;10337473;28;20286;-66
2024/02/21 08:09:50;;;;;;;8.65;5.70;;;10.50;98.20;;;;;;10329966;28;20237;-67
2024/02/21 08:14:55;;;;;;;8.32;5.60;;;10.50;98.40;;;;;;10334960;28;20337;-65
2024/02/21 08:19:59;;;;;;;11.27;5.20;;;10.60;97.80;;;;;;10335672;28;20326;-64
2024/02/21 08:25:05;;;;;;;12.55;5.50;;;10.60;98.00;;;;;;10335936;28;20266;-63
2024/02/21 08:30:11;;;;;;;6.53;4.70;;;10.60;98.10;;;;;;10335409;28;21564;-64
2024/02/21 08:35:15;;;;;;;9.35;4.80;;;10.60;97.30;;;;;;10333013;28;20204;-66
2024/02/21 08:40:21;;;;;;;8.73;4.45;;;10.60;97.10;;;;;;10334217;28;20232;-66
2024/02/21 08:45:26;;;;;;;8.73;4.47;;;10.60;97.40;;;;;;10335728;28;20274;-66
2024/02/21 08:50:30;;;;;;;7.53;4.13;;;10.60;97.70;;;;;;10331185;28;20842;-65
2024/02/21 08:55:35;;;;;;;9.60;4.78;;;10.70;97.30;;;;;;10329371;28;20316;-66
2024/02/21 09:00:43;;;;;;;11.25;4.80;;;10.70;96.90;;;;;;10325060;28;21031;-66
2024/02/21 09:05:47;;;;;;;11.32;4.57;;;10.70;96.90;;;;;;10328499;28;20410;-64
2024/02/21 09:10:51;;;;;;;9.47;4.40;;;10.70;97.00;;;;;;10325920;28;20297;-64
2024/02/21 09:15:56;;;;;;;8.77;3.95;;;10.70;97.20;;;;;;10325722;28;20262;-65
2024/02/21 09:21:00;;;;;;;8.43;4.40;;;10.70;96.70;;;;;;10326234;28;20213;-64
2024/02/21 09:26:04;;;;;;;10.93;4.80;;;10.70;97.10;;;;;;10331352;28;20224;-64
2024/02/21 09:31:09;;;;;;;12.77;6.20;;;10.60;96.70;;;;;;10330181;28;20281;-65
2024/02/21 09:36:13;;;;;;;14.30;5.18;;;10.50;96.80;;;;;;10324904;28;21367;-64
2024/02/21 09:41:18;;;;;;;11.10;5.37;;;10.50;96.70;;;;;;10327428;28;20231;-66
2024/02/21 09:46:41;;;;;;;9.85;5.20;;;10.50;97.40;;;;;;10324965;28;20229;-65
2024/02/21 09:51:45;;;;;;;8.68;4.65;;;10.50;96.60;;;;;;10324096;28;21091;-66
2024/02/21 09:56:49;;;;;;;14.27;5.28;;;10.50;96.90;;;;;;10328681;28;20300;-66
2024/02/21 10:01:55;;;;;;;11.57;6.28;;;10.50;96.60;;;;;;10328006;28;20711;-64
2024/02/21 10:06:58;;;;;;;12.35;6.40;;;10.50;97.10;;;;;;10326804;28;20785;-65
2024/02/21 10:12:13;;;;;;;12.25;6.45;;;10.60;96.90;;;;;;10327725;28;20701;-65
2024/02/21 10:17:20;;;;;;;9.68;6.00;;;10.60;96.90;;;;;;10327209;28;21535;-66
2024/02/21 10:22:25;;;;;;;11.38;6.18;;;10.70;96.60;;;;;;10328060;28;20204;-64
2024/02/21 10:27:29;;;;;;;11.00;7.13;;;10.70;96.70;;;;;;10332649;28;20225;-63
2024/02/21 10:32:34;;;;;;;14.68;8.10;;;10.80;96.90;;;;;;10332935;28;20597;-63
2024/02/21 10:37:38;;;;;;;12.00;7.10;;;10.90;96.60;;;;;;10333493;28;20228;-64
2024/02/21 10:42:42;;;;;;;12.05;6.57;;;10.90;96.50;;;;;;10334210;28;20205;-64
2024/02/21 10:47:52;;;;;;;8.63;5.10;;;10.90;96.90;;;;;;10333973;28;20385;-64
2024/02/21 10:53:09;;;;;;;9.07;4.93;;;11.00;97.00;;;;;;10333854;28;20309;-64
2024/02/21 10:58:14;;;;;;;9.57;4.67;;;11.00;96.70;;;;;;10338226;28;20301;-60
2024/02/21 11:03:20;;;;;;;8.77;3.85;;;11.10;96.80;;;;;;10335012;28;20201;-60
2024/02/21 11:08:24;;;;;;;8.25;4.53;;;11.20;96.90;;;;;;10333614;28;20229;-62
2024/02/21 11:13:32;;;;;;;10.88;4.70;;;11.20;96.50;;;;;;10337713;28;20233;-61
2024/02/21 11:18:38;;;;;;;6.20;4.05;;;11.30;95.40;;;;;;10335237;28;20239;-62
2024/02/21 11:23:42;;;;;;;7.18;4.38;;;11.40;96.00;;;;;;10335084;28;20205;-62
2024/02/21 11:28:46;;;;;;;8.32;4.93;;;11.50;96.50;;;;;;10331422;28;20278;-62
2024/02/21 11:33:52;;;;;;;8.40;4.38;;;11.60;96.70;;;;;;10331624;28;20228;-62
2024/02/21 11:39:05;;;;;;;9.68;4.40;;;11.70;95.90;;;;;;10331155;28;20229;-62
2024/02/21 11:44:10;;;;;;;7.82;4.82;;;11.70;95.20;;;;;;10330928;28;20269;-62
2024/02/21 11:49:15;;;;;;;9.30;4.55;;;11.80;95.10;;;;;;10334257;28;20281;-63
2024/02/21 11:54:18;;;;;;;7.03;5.20;;;11.80;95.10;;;;;;10333362;28;20769;-62
2024/02/21 11:59:22;;;;;;;7.07;4.20;;;11.90;95.30;;;;;;10333210;28;20698;-62
2024/02/21 12:04:28;;;;;;;7.40;4.80;;;11.90;95.40;;;;;;10332656;28;20197;-63
2024/02/21 12:09:32;;;;;;;6.95;4.85;;;12.00;95.70;;;;;;10331536;28;20738;-61
2024/02/21 12:14:37;;;;;;;9.63;5.38;;;12.10;95.60;;;;;;10336400;28;20228;-61
2024/02/21 12:19:42;;;;;;;9.60;5.65;;;12.20;95.80;;;;;;10327526;28;20232;-62
2024/02/21 12:24:47;;;;;;;7.05;4.85;;;12.30;95.60;;;;;;10330466;28;20265;-62
2024/02/21 12:29:51;;;;;;;7.43;4.32;;;12.30;95.10;;;;;;10329591;28;20224;-62
2024/02/21 12:34:56;;;;;;;10.45;4.32;;;12.40;95.20;;;;;;10321611;28;20224;-63
2024/02/21 12:40:00;;;;;;;9.75;3.83;;;12.40;95.00;;;;;;10334732;28;20305;-63
2024/02/21 12:45:04;;;;;;;7.28;3.42;;;12.40;95.50;;;;;;10337296;28;20294;-63
2024/02/21 12:50:10;;;;;;;9.88;4.43;;;12.50;94.20;;;;;;10335984;28;20273;-63
2024/02/21 12:55:14;;;;;;;13.52;6.47;;;12.50;95.00;;;;;;10330265;28;20228;-63
2024/02/21 13:00:19;;;;;;;11.68;5.45;;;12.60;94.40;;;;;;10332317;28;20520;-63
2024/02/21 13:05:24;;;;;;;14.75;5.63;;;12.60;94.20;;;;;;10331819;28;20962;-63
2024/02/21 13:10:28;;;;;;;13.20;5.97;;;12.70;93.70;;;;;;10337073;28;20285;-63
2024/02/21 13:15:32;;;;;;;11.40;3.42;;;12.70;93.60;;;;;;10327718;28;20230;-61
2024/02/21 13:20:37;;;;;;;7.95;2.95;;;12.80;93.30;;;;;;10330621;28;20673;-62
2024/02/21 13:25:41;;;;;;;4.70;2.60;;;12.80;92.90;;;;;;10332696;28;20262;-62
2024/02/21 13:30:45;;;;;;;6.90;3.13;;;12.90;93.60;;;;;;10325754;28;20285;-61
2024/02/21 13:35:50;;;;;;;6.15;2.80;;;13.00;93.90;;;;;;10323647;28;20294;-62
2024/02/21 13:40:53;;;;;;;8.13;3.13;;;13.00;93.40;;;;;;10321595;28;20216;-63
2024/02/21 13:45:58;;;;;;;9.40;3.40;;;13.10;94.30;;;;;;10326687;28;20228;-61
2024/02/21 13:51:06;;;;;;;6.43;3.00;;;13.10;93.00;;;;;;10326856;28;20209;-62
2024/02/21 13:56:10;;;;;;;6.85;2.80;;;13.10;92.80;;;;;;10327740;28;20756;-63
2024/02/21 14:01:14;;;;;;;7.93;3.15;;;13.00;92.90;;;;;;10331186;28;21872;-62
2024/02/21 14:06:19;;;;;;;7.90;2.40;;;13.00;92.70;;;;;;10339963;28;20221;-64
2024/02/21 14:11:23;;;;;;;6.28;2.65;;;13.00;93.10;;;;;;10349352;28;20261;-62
2024/02/21 14:16:27;;;;;;;8.18;3.05;;;13.00;93.50;;;;;;10353013;28;20235;-61
2024/02/21 14:21:32;;;;;;;8.57;2.85;;;13.00;92.80;;;;;;10340810;28;20683;-61
2024/02/21 14:26:36;;;;;;;5.72;2.95;;;13.00;93.10;;;;;;10337730;28;20220;-61
2024/02/21 14:31:40;;;;;;;6.82;2.88;;;13.00;93.30;;;;;;10348065;28;20356;-61
2024/02/21 14:36:45;;;;;;;6.40;2.90;;;13.00;92.90;;;;;;10345130;28;20236;-62
2024/02/21 14:41:48;;;;;;;4.80;2.70;;;13.00;92.10;;;;;;10342189;28;20265;-61
2024/02/21 14:46:52;;;;;;;7.57;2.85;;;13.00;92.00;;;;;;10342148;28;20302;-62
2024/02/21 14:51:57;;;;;;;7.43;2.85;;;12.90;91.60;;;;;;10348903;28;21066;-62
2024/02/21 14:57:02;;;;;;;10.80;3.05;;;12.90;91.70;;;;;;10339944;28;20232;-61
2024/02/21 15:02:07;;;;;;;5.70;2.65;;;12.90;92.10;;;;;;10341434;28;20480;-61
2024/02/21 15:07:12;;;;;;;5.97;3.00;;;12.90;92.20;;;;;;10335030;28;20399;-60
2024/02/21 15:12:16;;;;;;;5.97;2.35;;;12.80;91.60;;;;;;10341199;28;20205;-62
2024/02/21 15:17:20;;;;;;;7.13;3.20;;;12.80;92.30;;;;;;10341132;28;20232;-62
2024/02/21 15:22:25;;;;;;;5.47;2.20;;;12.80;91.20;;;;;;10344816;28;20270;-60
2024/02/21 15:27:28;;;;;;;5.18;2.67;;;12.70;91.30;;;;;;10348689;28;20228;-62
2024/02/21 15:32:32;;;;;;;7.80;2.65;;;12.70;91.60;;;;;;10345061;28;20216;-62
2024/02/21 15:37:37;;;;;;;6.85;2.60;;;12.60;92.30;;;;;;10343769;28;21450;-61
2024/02/21 15:42:41;;;;;;;5.07;2.80;;;12.60;92.30;;;;;;10342054;28;20291;-61
2024/02/21 15:47:45;;;;;;;6.40;2.85;;;12.50;92.00;;;;;;10333586;28;20250;-61
2024/02/21 15:52:50;;;;;;;4.63;2.90;;;12.50;92.30;;;;;;10339762;28;20204;-61
2024/02/21 15:57:54;;;;;;;5.68;2.80;;;12.40;91.80;;;;;;10337405;28;21731;-61
2024/02/21 16:02:57;;;;;;;5.65;2.70;;;12.40;92.30;;;;;;10342371;28;20217;-60
2024/02/21 16:08:02;;;;;;;7.05;3.15;;;12.30;92.00;;;;;;10340709;28;21248;-61
2024/02/21 16:13:09;;;;;;;7.95;2.88;;;12.30;91.80;;;;;;10340195;28;20201;-62
2024/02/21 16:18:13;;;;;;;5.90;3.05;;;12.30;91.60;;;;;;10336164;28;20236;-62
2024/02/21 16:23:18;;;;;;;7.30;2.78;;;12.20;91.90;;;;;;10334704;28;20235;-62
2024/02/21 16:28:23;;;;;;;6.80;2.67;;;12.20;91.40;;;;;;10395069;22;20303;-65
2024/02/21 16:33:26;;;;;;;7.15;3.40;;;12.20;91.10;;;;;;10401577;28;20252;-64
2024/02/21 16:38:32;;;;;;;7.82;2.60;;;12.10;91.60;;;;;;10374694;28;20227;-65
2024/02/21 16:43:36;;;;;;;4.32;2.60;;;12.10;91.30;;;;;;10361993;28;20216;-65
2024/02/21 16:48:40;;;;;;;5.47;2.60;;;12.10;91.20;;;;;;10363436;28;20232;-65
2024/02/21 16:53:46;;;;;;;5.22;2.33;;;12.00;91.40;;;;;;10366715;28;20212;-64
2024/02/21 16:58:49;;;;;;;5.60;2.50;;;12.00;91.50;;;;;;10367475;28;20300;-66
2024/02/21 17:03:53;;;;;;;8.43;2.80;;;11.90;91.90;;;;;;10365066;28;21436;-65
2024/02/21 17:08:58;;;;;;;7.10;3.30;;;11.80;92.30;;;;;;10380468;28;20232;-65
2024/02/21 17:14:01;;;;;;;6.60;2.63;;;11.80;92.60;;;;;;10379026;28;20792;-65
2024/02/21 17:19:05;;;;;;;7.43;2.92;;;11.70;92.90;;;;;;10364870;28;20236;-64
2024/02/21 17:24:11;;;;;;;5.10;2.40;;;11.60;92.90;;;;;;10362225;28;20349;-65
2024/02/21 17:29:15;;;;;;;6.85;2.80;;;11.50;93.20;;;;;;10362574;28;20706;-63
2024/02/21 17:34:22;;;;;;;5.75;3.03;;;11.40;93.40;;;;;;10364650;28;20220;-64
2024/02/21 17:39:28;;;;;;;6.07;2.83;;;11.40;93.80;;;;;;10367826;28;20369;-66
2024/02/21 17:44:31;;;;;;;6.60;3.00;;;11.30;94.50;;;;;;10373464;28;20558;-65
2024/02/21 17:49:35;;;;;;;8.45;3.22;;;11.30;94.50;;;;;;10371533;28;20236;-64
2024/02/21 17:54:44;;;;;;;6.40;2.75;;;11.20;94.80;;;;;;10366916;28;20625;-65
2024/02/21 17:59:47;;;;;;;5.82;3.30;;;11.10;94.80;;;;;;10353850;28;20259;-60
2024/02/21 18:04:51;;;;;;;5.45;3.80;;;11.10;94.70;;;;;;10282583;28;20636;-61
2024/02/21 18:09:56;;;;;;;6.13;3.67;;;11.10;95.00;;;;;;10267726;28;20304;-62
2024/02/21 18:15:00;;;;;;;7.57;2.90;;;11.00;94.70;;;;;;10267121;28;20225;-60
2024/02/21 18:20:05;;;;;;;6.90;3.05;;;11.00;95.00;;;;;;10283533;28;20244;-61
2024/02/21 18:25:12;;;;;;;4.72;2.83;;;11.00;95.10;;;;;;10281963;28;20201;-60
2024/02/21 18:30:16;;;;;;;3.38;2.88;;;10.90;95.40;;;;;;10267435;28;20213;-63
2024/02/21 18:35:20;;;;;;;6.47;3.13;;;10.80;95.40;;;;;;10269030;28;20253;-62
2024/02/21 18:40:26;;;;;;;6.80;3.00;;;10.80;95.20;;;;;;10281773;28;20309;-61
2024/02/21 18:45:30;;;;;;;5.65;3.45;;;10.80;95.30;;;;;;10281943;28;20306;-62
2024/02/21 18:50:33;;;;;;;6.07;2.97;;;10.70;95.70;;;;;;10282931;28;20807;-61
2024/02/21 18:55:38;;;;;;;8.05;2.88;;;10.60;95.50;;;;;;10280496;28;20260;-61
2024/02/21 19:00:42;;;;;;;6.53;3.22;;;10.60;95.90;;;;;;10281262;28;20311;-62
2024/02/21 19:05:46;;;;;;;6.53;3.05;;;10.60;96.00;;;;;;10280829;28;20275;-60
2024/02/21 19:10:51;;;;;;;8.32;3.20;;;10.50;95.90;;;;;;10281115;28;20233;-67
2024/02/21 19:15:55;;;;;;;7.38;3.20;;;10.40;96.20;;;;;;10280236;28;20298;-59
2024/02/21 19:20:58;;;;;;;7.30;3.88;;;10.40;96.50;;;;;;10281798;28;21227;-62
2024/02/21 19:26:05;;;;;;;9.93;3.78;;;10.40;96.90;;;;;;10281125;28;21054;-61
2024/02/21 19:31:09;;;;;;;6.90;3.33;;;10.40;96.60;;;;;;10281053;28;20218;-61
2024/02/21 19:36:13;;;;;;;6.82;3.78;;;10.30;96.70;;;;;;10279907;28;20237;-60
2024/02/21 19:41:18;;;;;;;7.50;3.60;;;10.30;97.40;;;;;;10280278;28;20214;-61
2024/02/21 19:46:23;;;;;;;6.68;4.28;;;10.30;97.10;;;;;;10275275;28;20279;-61
2024/02/21 19:51:28;;;;;;;10.90;6.45;;;10.20;97.10;;;;;;10265024;28;21328;-61
2024/02/21 19:56:33;;;;;;;7.25;4.70;;;10.30;97.40;;;;;;10267238;28;20295;-61
2024/02/21 20:01:36;;;;;;;10.13;5.93;;;10.30;97.50;;;;;;10279382;28;20210;-60
2024/02/21 20:06:40;;;;;;;8.50;4.83;;;10.30;97.70;;;;;;10272636;28;21380;-60
2024/02/21 20:11:45;;;;;;;8.75;3.53;;;10.20;97.90;;;;;;10264691;28;20213;-61
2024/02/21 20:16:49;;;;;;;8.82;5.20;;;10.30;98.20;;;;;;10264403;28;20241;-61
2024/02/21 20:21:53;;;;;;;6.50;3.80;;;10.20;97.50;;;;;;10265272;28;20428;-60
2024/02/21 20:26:58;;;;;;;7.30;3.97;;;10.20;97.80;;;;;;10268318;28;21555;-61
2024/02/21 20:32:02;;;;;;;8.82;4.88;;;10.20;97.70;;;;;;10278133;28;20283;-61
2024/02/21 20:37:07;;;;;;;7.53;4.18;;;10.20;97.80;;;;;;10270618;28;21477;-63
2024/02/21 20:42:17;;;;;;;6.60;4.37;;;10.20;98.30;;;;;;10266884;28;20234;-63
2024/02/21 20:47:23;;;;;;;7.87;4.33;;;10.20;98.10;;;;;;10276793;28;20229;-63
2024/02/21 20:52:27;;;;;;;8.00;4.00;;;10.20;98.50;;;;;;10272983;28;20287;-66
2024/02/21 20:57:33;;;;;;;9.90;4.83;;;10.20;98.50;;;;;;10276315;28;20318;-64
2024/02/21 21:02:37;;;;;;;5.80;4.53;;;10.10;98.40;;;;;;10279289;28;20271;-64
2024/02/21 21:07:40;;;;;;;7.40;4.13;;;10.10;98.60;;;;;;10271883;28;20240;-65
2024/02/21 21:12:45;;;;;;;7.63;4.60;;;10.10;98.90;;;;;;10266834;28;20209;-63
2024/02/21 21:17:49;;;;;;;5.77;3.70;;;10.20;99.10;;;;;;10277629;28;20237;-63
2024/02/21 21:22:54;;;;;;;5.43;4.00;;;10.10;99.40;;;;;;10282566;28;20210;-61
2024/02/21 21:27:59;;;;;;;11.57;5.53;;;10.20;99.00;;;;;;10280208;28;20237;-61
2024/02/21 21:33:04;;;;;;;8.00;4.70;;;10.20;99.30;;;;;;10276262;28;20201;-61
2024/02/21 21:38:07;;;;;;;8.27;4.67;;;10.20;99.50;;;;;;10275233;28;20225;-60
2024/02/21 21:43:13;;;;;;;5.60;4.53;;;10.20;99.40;;;;;;10275791;28;21445;-63
2024/02/21 21:48:16;;;;;;;10.53;6.37;;;10.10;99.20;;;;;;10266635;28;20380;-60
2024/02/21 21:53:20;;;;;;;7.70;6.43;;;10.20;99.50;;;;;;10262066;28;20206;-59
2024/02/21 21:58:25;;;;;;;7.03;4.50;;;10.20;99.60;;;;;;10270693;28;20225;-60
2024/02/21 22:03:29;;;;;;;8.33;4.80;;;10.20;99.90;;;;;;10276123;28;20209;-60
2024/02/21 22:08:32;;;;;;;5.95;4.10;;;10.20;99.90;;;;;;10276719;28;20757;-60
2024/02/21 22:13:37;;;;;;;4.70;3.95;;;10.20;99.90;;;;;;10277568;28;20209;-61
2024/02/21 22:18:42;;;;;;;6.40;4.17;;;10.20;99.90;;;;;;10275271;28;20238;-60
2024/02/21 22:23:46;;;;;;;6.63;4.40;;;10.20;99.90;;;;;;10282225;28;20214;-60
2024/02/21 22:28:51;;;;;;;6.32;4.00;;;10.20;99.90;;;;;;10284277;28;20241;-58
2024/02/21 22:33:57;;;;;;;3.70;3.30;;;10.20;99.90;;;;;;10285931;28;20214;-58
2024/02/21 22:39:01;;;;;;;8.05;4.88;;;10.20;99.90;;;;;;10272567;28;20241;-58
2024/02/21 22:44:06;;;;;;;4.93;3.03;;;10.20;99.90;;;;;;10270848;28;20743;-58
2024/02/21 22:49:10;;;;;;;4.97;3.50;;;10.20;99.90;;;;;;10269919;28;20253;-58
2024/02/21 22:54:15;;;;;;;5.28;3.80;;;10.20;99.90;;;;;;10269958;28;20209;-59
2024/02/21 22:59:20;;;;;;;4.05;3.17;;;10.20;99.90;;;;;;10281327;28;20237;-58
2024/02/21 23:04:24;;;;;;;3.80;2.65;;;10.10;99.90;;;;;;10285792;28;20214;-59
2024/02/21 23:09:29;;;;;;;2.75;2.55;;;10.10;99.90;;;;;;10283922;28;20283;-58
2024/02/21 23:14:34;;;;;;;4.47;2.77;;;10.20;99.90;;;;;;10283081;28;20829;-56
2024/02/21 23:19:37;;;;;;;4.13;2.70;;;10.10;99.90;;;;;;10284306;28;20237;-57
2024/02/21 23:24:41;;;;;;;3.90;2.40;;;10.20;99.90;;;;;;10283807;28;20287;-58
2024/02/21 23:29:46;;;;;;;2.00;1.80;;;10.20;99.90;;;;;;10282997;28;20244;-58
2024/02/21 23:34:50;;;;;;;3.38;2.65;;;10.20;99.90;;;;;;10283502;28;20757;-59
2024/02/21 23:39:54;;;;;;;3.80;2.70;;;10.20;99.90;;;;;;10268303;28;20721;-59
2024/02/21 23:44:59;;;;;;;2.05;1.50;;;10.20;99.90;;;;;;10267543;28;20205;-56
2024/02/21 23:50:03;;;;;;;3.13;1.80;;;10.20;99.90;;;;;;10283293;28;21673;-57
2024/02/21 23:55:08;;;;;;;3.42;2.38;;;10.20;99.90;;;;;;10281978;28;20209;-56
